Time;durP1;ratioP1;P1;durP2;ratioP2;P2;SDS_P1;SDS_P2;PMS_P1;PMS_P2;Temp;Humidity;BMP_temperature;BMP_pressure;BME280_temperature;BME280_humidity;BME280_pressure;Samples;Min_cycle;Max_cycle;Signal;HPM_P1;HPM_P2
2022/03/29 00:01:47;;;;;;;33.13;19.53;;;;;;;;;;774992;179;923123;-59
2022/03/29 00:04:15;;;;;;;28.23;17.80;;;;;;;;;;777241;179;920948;-61
2022/03/29 00:06:39;;;;;;;33.23;17.37;;;;;;;;;;775386;179;917145;-60
2022/03/29 00:09:05;;;;;;;28.10;18.27;;;;;;;;;;773886;179;919113;-59
2022/03/29 00:11:31;;;;;;;28.70;16.60;;;;;;;;;;772640;179;918842;-60
2022/03/29 00:13:57;;;;;;;30.90;18.27;;;;;;;;;;768342;178;819521;-61
2022/03/29 00:16:23;;;;;;;28.97;17.07;;;;;;;;;;768657;179;916885;-60
2022/03/29 00:18:48;;;;;;;25.30;17.37;;;;;;;;;;782965;177;922271;-61
2022/03/29 00:21:15;;;;;;;27.67;17.93;;;;;;;;;;782684;176;917211;-60
2022/03/29 00:23:40;;;;;;;25.23;17.60;;;;;;;;;;781991;177;633875;-60
2022/03/29 00:26:06;;;;;;;33.73;18.13;;;;;;;;;;780377;176;618766;-60
2022/03/29 00:28:32;;;;;;;27.20;16.27;;;;;;;;;;783015;177;891818;-62
2022/03/29 00:30:58;;;;;;;26.20;17.60;;;;;;;;;;781326;177;631962;-61
2022/03/29 00:33:25;;;;;;;26.12;17.87;;;;;;;;;;778902;178;916412;-61
2022/03/29 00:35:50;;;;;;;23.93;16.40;;;;;;;;;;776529;179;919958;-61
2022/03/29 00:38:16;;;;;;;29.90;17.67;;;;;;;;;;776604;178;625417;-60
2022/03/29 00:40:42;;;;;;;29.23;17.20;;;;;;;;;;775394;179;916460;-62
2022/03/29 00:43:08;;;;;;;30.07;17.60;;;;;;;;;;769515;179;1737766;-61
2022/03/29 00:45:33;;;;;;;27.50;15.83;;;;;;;;;;780752;179;917367;-60
2022/03/29 00:48:00;;;;;;;34.60;18.80;;;;;;;;;;769130;179;939573;-60
2022/03/29 00:50:25;;;;;;;29.00;16.60;;;;;;;;;;772541;177;1035495;-61
2022/03/29 00:52:52;;;;;;;27.73;16.50;;;;;;;;;;788819;177;616692;-60
2022/03/29 00:55:17;;;;;;;32.03;16.40;;;;;;;;;;771120;179;918706;-61
2022/03/29 00:57:45;;;;;;;27.62;17.98;;;;;;;;;;774480;179;920214;-61
2022/03/29 01:00:10;;;;;;;31.87;16.90;;;;;;;;;;784387;179;918465;-61
2022/03/29 01:02:35;;;;;;;32.90;18.27;;;;;;;;;;771901;179;919836;-60
2022/03/29 01:05:01;;;;;;;29.10;18.00;;;;;;;;;;762915;180;1022749;-60
2022/03/29 01:07:27;;;;;;;34.90;18.63;;;;;;;;;;764341;180;919540;-61
2022/03/29 01:09:53;;;;;;;30.40;17.37;;;;;;;;;;773390;179;913300;-60
2022/03/29 01:12:18;;;;;;;32.50;17.07;;;;;;;;;;773049;179;625747;-61
2022/03/29 01:14:44;;;;;;;27.65;17.55;;;;;;;;;;769282;179;918859;-61
2022/03/29 01:19:42;;;;;;;27.07;15.73;;;;;;;;;;769989;179;922012;-61
2022/03/29 01:22:09;;;;;;;29.30;18.10;;;;;;;;;;770374;181;919501;-61
2022/03/29 01:24:34;;;;;;;47.20;18.60;;;;;;;;;;768546;178;1025254;-61
2022/03/29 01:27:00;;;;;;;31.47;17.83;;;;;;;;;;778155;180;919411;-60
2022/03/29 01:29:27;;;;;;;28.50;17.20;;;;;;;;;;775938;179;920304;-61
2022/03/29 01:31:52;;;;;;;25.07;15.73;;;;;;;;;;763743;179;922316;-59
2022/03/29 01:34:18;;;;;;;30.27;16.60;;;;;;;;;;769968;180;919734;-60
2022/03/29 01:36:44;;;;;;;35.15;20.80;;;;;;;;;;763010;180;920086;-61
2022/03/29 01:39:10;;;;;;;24.53;15.40;;;;;;;;;;763249;181;919848;-61
2022/03/29 01:41:38;;;;;;;41.40;17.97;;;;;;;;;;769904;181;921644;-60
2022/03/29 01:44:02;;;;;;;35.67;18.80;;;;;;;;;;772318;180;919238;-61
2022/03/29 01:46:28;;;;;;;22.90;15.07;;;;;;;;;;767387;180;916824;-61
2022/03/29 01:48:54;;;;;;;22.60;14.80;;;;;;;;;;771991;182;882730;-60
2022/03/29 01:51:20;;;;;;;29.70;18.63;;;;;;;;;;786868;177;714431;-60
2022/03/29 01:53:46;;;;;;;27.57;18.87;;;;;;;;;;778111;180;919400;-61
2022/03/29 01:56:11;;;;;;;26.40;17.60;;;;;;;;;;774978;177;918694;-60
2022/03/29 01:58:37;;;;;;;32.87;18.70;;;;;;;;;;777451;181;918268;-61
2022/03/29 02:01:03;;;;;;;24.50;16.30;;;;;;;;;;769975;181;919578;-60
2022/03/29 02:03:29;;;;;;;26.23;17.67;;;;;;;;;;780302;179;626920;-60
2022/03/29 02:05:54;;;;;;;27.30;15.63;;;;;;;;;;785150;179;644664;-60
2022/03/29 02:08:20;;;;;;;30.07;16.73;;;;;;;;;;782446;179;615033;-60
2022/03/29 02:10:46;;;;;;;29.43;18.53;;;;;;;;;;777273;177;656243;-60
2022/03/29 02:13:12;;;;;;;26.57;15.53;;;;;;;;;;769740;179;616223;-61
2022/03/29 02:15:38;;;;;;;25.73;15.13;;;;;;;;;;774347;181;918641;-61
2022/03/29 02:18:04;;;;;;;30.43;18.40;;;;;;;;;;774831;179;919999;-60
2022/03/29 02:20:30;;;;;;;35.80;17.73;;;;;;;;;;774399;179;817956;-61
2022/03/29 02:22:55;;;;;;;23.47;15.17;;;;;;;;;;781309;179;901726;-61
2022/03/29 02:25:21;;;;;;;31.87;17.90;;;;;;;;;;784511;177;883372;-58
2022/03/29 02:27:47;;;;;;;29.40;18.40;;;;;;;;;;763488;180;920670;-59
2022/03/29 02:30:13;;;;;;;26.90;16.83;;;;;;;;;;769616;180;1026582;-60
2022/03/29 02:32:39;;;;;;;36.60;19.20;;;;;;;;;;780143;177;919921;-60
2022/03/29 02:35:05;;;;;;;25.00;17.33;;;;;;;;;;779786;178;628277;-61
2022/03/29 02:37:31;;;;;;;26.30;16.97;;;;;;;;;;784365;179;629667;-61
2022/03/29 02:39:57;;;;;;;27.07;16.50;;;;;;;;;;776170;179;891173;-60
2022/03/29 02:42:23;;;;;;;26.17;16.00;;;;;;;;;;770603;179;920379;-61
2022/03/29 02:44:49;;;;;;;28.25;16.52;;;;;;;;;;773384;179;930864;-60
2022/03/29 02:47:14;;;;;;;27.77;16.77;;;;;;;;;;774928;179;920053;-60
2022/03/29 02:49:40;;;;;;;26.80;13.83;;;;;;;;;;763826;178;944332;-60
2022/03/29 02:52:07;;;;;;;23.33;15.77;;;;;;;;;;770599;177;919519;-60
2022/03/29 02:54:32;;;;;;;28.05;15.95;;;;;;;;;;776440;177;919055;-59
2022/03/29 02:56:58;;;;;;;27.93;16.90;;;;;;;;;;772831;178;920537;-61
2022/03/29 02:59:24;;;;;;;27.23;16.97;;;;;;;;;;775132;176;919575;-60
2022/03/29 03:01:50;;;;;;;23.87;15.32;;;;;;;;;;782921;179;886433;-59
2022/03/29 03:04:16;;;;;;;24.20;14.70;;;;;;;;;;779251;177;919421;-60
2022/03/29 03:06:42;;;;;;;23.73;15.17;;;;;;;;;;768164;179;918631;-61
2022/03/29 03:09:08;;;;;;;27.20;16.07;;;;;;;;;;775989;177;921356;-60
2022/03/29 03:11:35;;;;;;;28.73;15.70;;;;;;;;;;774680;179;922085;-59
2022/03/29 03:13:59;;;;;;;33.65;17.52;;;;;;;;;;771275;179;922734;-61
2022/03/29 03:16:26;;;;;;;27.10;17.50;;;;;;;;;;769012;179;1021996;-60
2022/03/29 03:18:51;;;;;;;28.80;17.57;;;;;;;;;;778573;179;917676;-60
2022/03/29 03:21:17;;;;;;;26.97;18.70;;;;;;;;;;771752;179;912414;-61
2022/03/29 03:23:43;;;;;;;22.97;15.60;;;;;;;;;;774770;178;919627;-60
2022/03/29 03:26:08;;;;;;;33.77;17.57;;;;;;;;;;775011;179;913517;-59
2022/03/29 03:28:34;;;;;;;24.27;14.13;;;;;;;;;;766723;180;919226;-60
2022/03/29 03:31:00;;;;;;;24.63;16.60;;;;;;;;;;769705;180;919148;-59
2022/03/29 03:33:26;;;;;;;26.90;16.13;;;;;;;;;;767872;179;914668;-59
2022/03/29 03:35:52;;;;;;;24.93;15.90;;;;;;;;;;770870;179;928458;-60
2022/03/29 03:38:18;;;;;;;26.58;16.12;;;;;;;;;;764276;180;920118;-61
2022/03/29 03:40:44;;;;;;;24.20;15.67;;;;;;;;;;768224;179;919072;-60
2022/03/29 03:43:09;;;;;;;28.00;16.30;;;;;;;;;;779923;180;919482;-60
2022/03/29 03:45:35;;;;;;;27.30;17.03;;;;;;;;;;774895;177;1021710;-59
2022/03/29 03:48:01;;;;;;;23.33;15.47;;;;;;;;;;769315;180;918622;-59
2022/03/29 03:50:27;;;;;;;34.70;16.50;;;;;;;;;;773986;178;919679;-60
2022/03/29 03:52:54;;;;;;;25.23;16.67;;;;;;;;;;774798;180;891620;-60
2022/03/29 03:55:19;;;;;;;26.13;15.63;;;;;;;;;;783400;179;918943;-61
2022/03/29 03:57:44;;;;;;;24.70;14.23;;;;;;;;;;777659;179;920689;-61
2022/03/29 04:00:11;;;;;;;23.67;13.93;;;;;;;;;;769899;177;1021675;-60
2022/03/29 04:02:36;;;;;;;22.30;14.80;;;;;;;;;;768216;179;919630;-60
2022/03/29 04:05:02;;;;;;;26.33;14.60;;;;;;;;;;768327;179;917031;-60
2022/03/29 04:07:28;;;;;;;27.80;14.63;;;;;;;;;;773105;182;920123;-60
2022/03/29 04:09:54;;;;;;;27.50;15.67;;;;;;;;;;765887;182;919827;-59
2022/03/29 04:12:20;;;;;;;29.33;15.87;;;;;;;;;;771055;180;920969;-60
2022/03/29 04:14:46;;;;;;;28.50;16.57;;;;;;;;;;783331;179;919126;-60
2022/03/29 04:17:12;;;;;;;26.97;16.27;;;;;;;;;;774756;180;920604;-62
2022/03/29 04:19:37;;;;;;;27.03;15.47;;;;;;;;;;768678;181;642035;-60
2022/03/29 04:22:04;;;;;;;26.43;15.63;;;;;;;;;;770986;180;920676;-60
2022/03/29 04:24:29;;;;;;;28.87;16.17;;;;;;;;;;769834;179;919106;-60
2022/03/29 04:26:55;;;;;;;30.00;17.43;;;;;;;;;;770662;180;919347;-61
2022/03/29 04:29:22;;;;;;;25.93;16.07;;;;;;;;;;768729;177;919767;-61
2022/03/29 04:31:47;;;;;;;25.80;16.40;;;;;;;;;;777695;175;951028;-61
2022/03/29 04:34:13;;;;;;;27.50;15.93;;;;;;;;;;777191;178;1022440;-61
2022/03/29 04:36:39;;;;;;;29.23;17.83;;;;;;;;;;768822;179;929017;-61
2022/03/29 04:39:05;;;;;;;25.83;16.27;;;;;;;;;;775038;179;919609;-60
2022/03/29 04:41:30;;;;;;;29.33;17.13;;;;;;;;;;778973;177;636114;-61
2022/03/29 04:43:56;;;;;;;31.02;16.58;;;;;;;;;;773429;179;998772;-60
2022/03/29 04:46:23;;;;;;;33.47;16.77;;;;;;;;;;777513;180;917632;-61
2022/03/29 04:48:50;;;;;;;26.50;16.20;;;;;;;;;;777060;179;807656;-61
2022/03/29 04:51:14;;;;;;;37.17;16.90;;;;;;;;;;773996;179;914184;-60
2022/03/29 04:53:40;;;;;;;28.73;16.70;;;;;;;;;;773281;179;706296;-61
2022/03/29 04:56:06;;;;;;;26.50;16.90;;;;;;;;;;783241;176;626857;-60
2022/03/29 04:58:31;;;;;;;30.83;18.07;;;;;;;;;;778513;179;922025;-60
2022/03/29 05:00:58;;;;;;;27.47;17.20;;;;;;;;;;774352;179;620514;-60
2022/03/29 05:03:23;;;;;;;29.80;17.27;;;;;;;;;;778792;179;902370;-60
2022/03/29 05:05:49;;;;;;;23.80;16.47;;;;;;;;;;770138;180;917407;-60
2022/03/29 05:08:15;;;;;;;26.58;16.15;;;;;;;;;;765969;180;1005300;-61
2022/03/29 05:10:41;;;;;;;28.50;16.60;;;;;;;;;;773802;179;919344;-60
2022/03/29 05:13:07;;;;;;;27.33;16.87;;;;;;;;;;767173;180;919872;-60
2022/03/29 05:15:32;;;;;;;37.93;20.30;;;;;;;;;;774934;179;877740;-61
2022/03/29 05:17:58;;;;;;;32.72;20.85;;;;;;;;;;783885;178;915770;-61
2022/03/29 05:20:24;;;;;;;30.93;19.67;;;;;;;;;;767888;180;916076;-61
2022/03/29 05:22:51;;;;;;;31.17;19.10;;;;;;;;;;770736;180;917441;-60
2022/03/29 05:25:18;;;;;;;34.80;19.37;;;;;;;;;;769201;178;918167;-60
2022/03/29 05:27:43;;;;;;;32.77;21.03;;;;;;;;;;777346;181;716752;-61
2022/03/29 05:30:10;;;;;;;35.40;22.10;;;;;;;;;;780162;175;919871;-60
2022/03/29 05:32:35;;;;;;;44.87;26.70;;;;;;;;;;770540;178;930127;-61
2022/03/29 05:35:01;;;;;;;56.13;34.17;;;;;;;;;;776016;178;915359;-60
2022/03/29 05:37:27;;;;;;;75.10;43.10;;;;;;;;;;775878;179;1046097;-59
2022/03/29 05:39:53;;;;;;;86.17;44.93;;;;;;;;;;773589;179;919900;-60
2022/03/29 05:42:21;;;;;;;77.93;45.40;;;;;;;;;;778720;179;623677;-60
2022/03/29 05:44:45;;;;;;;80.80;44.83;;;;;;;;;;773602;182;918833;-60
2022/03/29 05:49:43;;;;;;;60.05;35.95;;;;;;;;;;782678;177;1121284;-61
2022/03/29 05:52:09;;;;;;;74.83;36.00;;;;;;;;;;787926;179;919970;-60
2022/03/29 05:54:35;;;;;;;48.30;27.83;;;;;;;;;;777825;179;920113;-60
2022/03/29 05:57:01;;;;;;;51.20;29.37;;;;;;;;;;776237;177;686004;-60
2022/03/29 05:59:27;;;;;;;36.90;23.17;;;;;;;;;;780759;179;616002;-60
2022/03/29 06:01:52;;;;;;;115.13;55.77;;;;;;;;;;768780;182;623194;-61
2022/03/29 06:04:22;;;;;;;141.67;60.80;;;;;;;;;;765940;179;919767;-60
2022/03/29 06:06:45;;;;;;;96.00;55.77;;;;;;;;;;773896;177;918457;-60
2022/03/29 06:09:10;;;;;;;45.13;27.33;;;;;;;;;;779055;179;919698;-60
2022/03/29 06:11:37;;;;;;;60.40;35.90;;;;;;;;;;771882;179;919188;-60
2022/03/29 06:14:02;;;;;;;46.17;30.77;;;;;;;;;;771446;179;920245;-61
2022/03/29 06:16:28;;;;;;;46.07;28.67;;;;;;;;;;772966;179;918982;-60
2022/03/29 06:18:53;;;;;;;35.20;22.53;;;;;;;;;;772212;179;918902;-59
2022/03/29 06:21:21;;;;;;;32.65;21.02;;;;;;;;;;772084;179;1123837;-60
2022/03/29 06:23:45;;;;;;;43.07;23.93;;;;;;;;;;779167;177;850741;-60
2022/03/29 06:26:12;;;;;;;27.67;17.87;;;;;;;;;;770069;180;1020915;-61
2022/03/29 06:28:37;;;;;;;26.63;17.97;;;;;;;;;;771226;178;919778;-61
2022/03/29 06:31:03;;;;;;;31.60;17.93;;;;;;;;;;774402;178;919705;-60
2022/03/29 06:33:30;;;;;;;31.48;19.35;;;;;;;;;;778380;176;918814;-61
2022/03/29 06:35:55;;;;;;;66.07;42.13;;;;;;;;;;771323;178;915255;-62
2022/03/29 06:38:22;;;;;;;23.00;16.13;;;;;;;;;;771413;180;916249;-61
2022/03/29 06:40:47;;;;;;;38.13;23.80;;;;;;;;;;774793;179;916451;-61
2022/03/29 06:43:13;;;;;;;27.80;19.53;;;;;;;;;;773419;179;910015;-60
2022/03/29 06:45:39;;;;;;;35.17;19.47;;;;;;;;;;765663;179;920247;-61
2022/03/29 06:48:05;;;;;;;32.87;17.07;;;;;;;;;;781566;177;915997;-61
2022/03/29 06:50:31;;;;;;;36.90;17.30;;;;;;;;;;781981;177;917368;-60
2022/03/29 06:52:59;;;;;;;29.37;19.80;;;;;;;;;;783061;177;1015505;-60
2022/03/29 06:55:23;;;;;;;26.93;15.47;;;;;;;;;;773119;180;916813;-61
2022/03/29 06:57:48;;;;;;;30.63;17.17;;;;;;;;;;777748;179;823565;-61
2022/03/29 07:00:15;;;;;;;29.17;16.87;;;;;;;;;;775865;177;920893;-62
2022/03/29 07:02:40;;;;;;;29.27;17.90;;;;;;;;;;768144;180;917206;-60
2022/03/29 07:05:07;;;;;;;27.27;18.57;;;;;;;;;;768865;181;919095;-61
2022/03/29 07:07:32;;;;;;;28.10;17.77;;;;;;;;;;769029;179;917947;-61
2022/03/29 07:12:31;;;;;;;33.30;18.60;;;;;;;;;;776739;176;918709;-61
2022/03/29 07:14:57;;;;;;;33.93;19.73;;;;;;;;;;776962;179;919899;-60
2022/03/29 07:17:22;;;;;;;32.37;18.10;;;;;;;;;;779714;178;919901;-60
2022/03/29 07:19:48;;;;;;;37.70;19.70;;;;;;;;;;767980;179;919745;-60
2022/03/29 07:22:14;;;;;;;29.93;17.80;;;;;;;;;;772844;179;919148;-61
2022/03/29 07:24:40;;;;;;;29.53;18.10;;;;;;;;;;768821;179;918820;-61
2022/03/29 07:27:07;;;;;;;32.77;17.47;;;;;;;;;;771968;180;887564;-61
2022/03/29 07:29:33;;;;;;;29.80;18.00;;;;;;;;;;776529;179;934605;-61
2022/03/29 07:31:58;;;;;;;31.00;18.07;;;;;;;;;;776845;176;919653;-61
2022/03/29 07:34:24;;;;;;;30.07;18.57;;;;;;;;;;769964;179;918822;-61
2022/03/29 07:36:50;;;;;;;30.47;16.50;;;;;;;;;;765621;180;919546;-61
2022/03/29 07:39:15;;;;;;;34.27;20.17;;;;;;;;;;777347;178;813891;-61
2022/03/29 07:41:41;;;;;;;30.87;18.87;;;;;;;;;;769267;178;920462;-61
2022/03/29 07:44:08;;;;;;;33.43;19.23;;;;;;;;;;774551;178;631602;-62
2022/03/29 07:46:33;;;;;;;32.37;19.20;;;;;;;;;;776053;178;918826;-62
2022/03/29 07:48:59;;;;;;;36.17;19.37;;;;;;;;;;775917;177;921456;-61
2022/03/29 07:51:25;;;;;;;34.33;19.63;;;;;;;;;;764759;180;916335;-62
2022/03/29 07:53:51;;;;;;;30.87;19.33;;;;;;;;;;770185;179;920144;-61
2022/03/29 07:56:17;;;;;;;32.37;17.90;;;;;;;;;;763891;180;919370;-61
2022/03/29 07:58:43;;;;;;;31.93;18.47;;;;;;;;;;743914;186;1018233;-60
2022/03/29 08:01:09;;;;;;;33.90;20.00;;;;;;;;;;755024;181;1500943;-61
2022/03/29 08:03:35;;;;;;;41.13;19.40;;;;;;;;;;745767;185;917538;-61
2022/03/29 08:06:01;;;;;;;29.90;18.17;;;;;;;;;;757432;181;921052;-61
2022/03/29 08:08:26;;;;;;;26.37;18.17;;;;;;;;;;754535;180;919317;-60
2022/03/29 08:10:52;;;;;;;40.40;17.52;;;;;;;;;;770822;180;919065;-61
2022/03/29 08:13:18;;;;;;;32.20;17.53;;;;;;;;;;744555;186;911000;-63
2022/03/29 08:15:44;;;;;;;31.93;19.00;;;;;;;;;;750141;185;913710;-64
2022/03/29 08:18:10;;;;;;;30.37;18.47;;;;;;;;;;747109;186;920085;-61
2022/03/29 08:20:36;;;;;;;26.93;15.67;;;;;;;;;;757413;182;919580;-62
2022/03/29 08:23:02;;;;;;;24.85;15.95;;;;;;;;;;770583;180;904852;-61
2022/03/29 08:25:29;;;;;;;24.20;15.37;;;;;;;;;;774466;179;911187;-61
2022/03/29 08:27:56;;;;;;;26.60;16.17;;;;;;;;;;769354;180;918568;-61
2022/03/29 08:30:21;;;;;;;30.83;17.63;;;;;;;;;;770426;180;923174;-63
2022/03/29 08:32:47;;;;;;;23.57;16.27;;;;;;;;;;769697;180;919855;-63
2022/03/29 08:35:13;;;;;;;25.30;16.60;;;;;;;;;;776428;180;919227;-63
2022/03/29 08:37:39;;;;;;;25.03;16.50;;;;;;;;;;771082;180;934589;-62
2022/03/29 08:40:05;;;;;;;23.83;14.83;;;;;;;;;;781747;177;918335;-62
2022/03/29 08:42:32;;;;;;;24.27;15.60;;;;;;;;;;777317;177;627701;-62
2022/03/29 08:44:58;;;;;;;30.27;17.27;;;;;;;;;;771970;179;919091;-63
2022/03/29 08:47:24;;;;;;;29.63;17.13;;;;;;;;;;772302;180;918846;-64
2022/03/29 08:49:50;;;;;;;32.83;18.10;;;;;;;;;;780079;177;919429;-62
2022/03/29 08:52:17;;;;;;;28.37;18.50;;;;;;;;;;769166;181;1021809;-62
2022/03/29 08:54:42;;;;;;;28.57;18.50;;;;;;;;;;772325;180;816318;-62
2022/03/29 08:57:07;;;;;;;29.60;17.67;;;;;;;;;;779187;179;1021793;-62
2022/03/29 08:59:33;;;;;;;32.60;16.50;;;;;;;;;;775051;180;918782;-62
2022/03/29 09:01:59;;;;;;;22.40;15.60;;;;;;;;;;766066;180;919720;-62
2022/03/29 09:04:25;;;;;;;25.90;14.73;;;;;;;;;;768707;179;1022473;-62
2022/03/29 09:06:55;;;;;;;25.00;16.40;;;;;;;;;;770475;180;919205;-61
2022/03/29 09:09:22;;;;;;;24.60;14.33;;;;;;;;;;770686;179;919452;-63
2022/03/29 09:11:48;;;;;;;26.63;16.30;;;;;;;;;;775476;179;997553;-62
2022/03/29 09:14:14;;;;;;;24.13;16.70;;;;;;;;;;773383;179;920256;-62
2022/03/29 09:16:41;;;;;;;21.90;15.67;;;;;;;;;;778625;179;920576;-62
2022/03/29 09:19:06;;;;;;;24.37;16.33;;;;;;;;;;770121;179;922805;-62
2022/03/29 09:21:46;;;;;;;22.00;14.53;;;;;;;;;;765732;180;919627;-63
2022/03/29 09:24:12;;;;;;;24.93;17.23;;;;;;;;;;766695;180;920802;-64
2022/03/29 09:26:39;;;;;;;27.07;16.67;;;;;;;;;;778635;179;918698;-63
2022/03/29 09:29:04;;;;;;;24.00;15.00;;;;;;;;;;770992;179;919737;-62
2022/03/29 09:31:30;;;;;;;24.80;15.87;;;;;;;;;;766363;179;919979;-63
2022/03/29 09:34:02;;;;;;;26.30;16.40;;;;;;;;;;772565;180;1021955;-63
2022/03/29 09:36:28;;;;;;;24.80;13.57;;;;;;;;;;775831;180;919483;-63
2022/03/29 09:38:56;;;;;;;26.00;17.10;;;;;;;;;;775090;178;919707;-63
2022/03/29 09:41:26;;;;;;;27.48;15.48;;;;;;;;;;776241;179;918874;-64
2022/03/29 09:43:58;;;;;;;24.40;16.77;;;;;;;;;;775656;179;912730;-63
2022/03/29 09:46:23;;;;;;;29.80;16.83;;;;;;;;;;781365;179;916404;-62
2022/03/29 09:48:50;;;;;;;26.67;15.40;;;;;;;;;;767145;179;995006;-62
2022/03/29 09:51:15;;;;;;;25.33;16.17;;;;;;;;;;776020;179;916921;-63
2022/03/29 09:53:43;;;;;;;24.10;16.98;;;;;;;;;;771573;178;917404;-66
2022/03/29 09:56:08;;;;;;;31.90;16.80;;;;;;;;;;769362;180;910699;-63
2022/03/29 09:58:34;;;;;;;25.90;15.23;;;;;;;;;;782469;177;639162;-62
2022/03/29 10:01:00;;;;;;;28.73;18.53;;;;;;;;;;774173;179;911758;-64
2022/03/29 10:03:26;;;;;;;22.97;16.23;;;;;;;;;;772231;180;919517;-64
2022/03/29 10:05:53;;;;;;;30.50;16.70;;;;;;;;;;771730;180;917605;-63
2022/03/29 10:10:49;;;;;;;38.03;14.97;;;;;;;;;;778117;177;1018177;-64
2022/03/29 10:13:15;;;;;;;24.97;15.30;;;;;;;;;;770165;179;916386;-63
2022/03/29 10:15:42;;;;;;;34.17;17.10;;;;;;;;;;773820;179;916365;-63
2022/03/29 10:18:08;;;;;;;20.60;15.87;;;;;;;;;;778733;178;919715;-66
2022/03/29 10:20:33;;;;;;;24.77;13.93;;;;;;;;;;772673;179;919432;-65
2022/03/29 10:22:59;;;;;;;28.83;16.30;;;;;;;;;;775761;179;644364;-64
2022/03/29 10:25:26;;;;;;;23.27;16.37;;;;;;;;;;774287;179;920189;-63
2022/03/29 10:27:51;;;;;;;23.00;15.63;;;;;;;;;;776831;179;919377;-64
2022/03/29 10:30:23;;;;;;;25.80;16.27;;;;;;;;;;773086;177;919776;-64
2022/03/29 10:32:49;;;;;;;24.63;15.50;;;;;;;;;;768391;182;921186;-63
2022/03/29 10:35:16;;;;;;;27.17;17.90;;;;;;;;;;770317;180;941993;-64
2022/03/29 10:37:46;;;;;;;28.30;16.63;;;;;;;;;;777559;179;919435;-64
2022/03/29 10:40:12;;;;;;;25.30;16.27;;;;;;;;;;777899;179;920066;-63
2022/03/29 10:42:41;;;;;;;27.97;17.30;;;;;;;;;;768708;179;918764;-64
2022/03/29 10:45:11;;;;;;;24.20;15.23;;;;;;;;;;777774;179;919626;-63
2022/03/29 10:47:37;;;;;;;25.30;17.10;;;;;;;;;;776463;176;919105;-63
2022/03/29 10:50:03;;;;;;;22.50;16.20;;;;;;;;;;768462;179;919948;-65
2022/03/29 10:52:28;;;;;;;30.37;14.80;;;;;;;;;;766696;179;919351;-64
2022/03/29 10:54:54;;;;;;;26.50;15.00;;;;;;;;;;782578;178;920367;-63
2022/03/29 10:57:24;;;;;;;22.17;13.20;;;;;;;;;;774381;179;918877;-69
2022/03/29 10:59:50;;;;;;;22.17;12.70;;;;;;;;;;777702;178;922191;-63
2022/03/29 11:02:15;;;;;;;18.30;12.47;;;;;;;;;;781588;180;919176;-64
2022/03/29 11:04:47;;;;;;;21.37;13.60;;;;;;;;;;770163;179;1050971;-64
2022/03/29 11:07:14;;;;;;;20.13;12.93;;;;;;;;;;773376;180;919384;-64
2022/03/29 11:09:40;;;;;;;21.93;13.63;;;;;;;;;;775569;177;918488;-64
2022/03/29 11:12:06;;;;;;;20.77;13.60;;;;;;;;;;779696;177;919535;-62
2022/03/29 11:14:35;;;;;;;25.53;16.03;;;;;;;;;;776663;178;919324;-63
2022/03/29 11:17:21;;;;;;;25.70;14.17;;;;;;;;;;775087;178;935231;-64
2022/03/29 11:19:47;;;;;;;24.23;14.97;;;;;;;;;;779304;177;630067;-65
2022/03/29 11:22:18;;;;;;;24.67;16.47;;;;;;;;;;773796;180;914706;-65
2022/03/29 11:24:44;;;;;;;26.23;12.90;;;;;;;;;;774736;180;917727;-65
2022/03/29 11:27:09;;;;;;;28.15;13.90;;;;;;;;;;757300;182;919685;-65
2022/03/29 11:29:35;;;;;;;25.27;14.10;;;;;;;;;;774775;179;968108;-65
2022/03/29 11:32:01;;;;;;;25.70;14.40;;;;;;;;;;776832;179;934696;-67
2022/03/29 11:34:27;;;;;;;22.40;13.03;;;;;;;;;;766831;179;1022205;-65
2022/03/29 11:36:53;;;;;;;23.37;13.67;;;;;;;;;;768727;179;919763;-64
2022/03/29 11:39:20;;;;;;;27.65;13.85;;;;;;;;;;773876;177;918917;-64
2022/03/29 11:41:45;;;;;;;29.83;13.47;;;;;;;;;;780372;179;919095;-64
2022/03/29 11:44:11;;;;;;;21.77;12.73;;;;;;;;;;771409;177;932559;-63
2022/03/29 11:46:42;;;;;;;24.63;13.30;;;;;;;;;;771557;180;919878;-65
2022/03/29 11:49:08;;;;;;;22.93;13.20;;;;;;;;;;777424;177;915397;-63
2022/03/29 11:51:34;;;;;;;25.20;13.87;;;;;;;;;;773126;177;1013283;-63
2022/03/29 11:54:00;;;;;;;24.93;14.33;;;;;;;;;;772767;179;919786;-64
2022/03/29 11:56:26;;;;;;;26.47;13.67;;;;;;;;;;769724;179;934236;-65
2022/03/29 11:58:52;;;;;;;21.07;12.43;;;;;;;;;;767906;180;919926;-65
2022/03/29 12:01:18;;;;;;;21.50;13.60;;;;;;;;;;765694;179;919368;-64
2022/03/29 12:03:43;;;;;;;21.67;12.30;;;;;;;;;;769768;179;919731;-64
2022/03/29 12:06:12;;;;;;;20.23;14.07;;;;;;;;;;779773;180;920172;-65
2022/03/29 12:08:42;;;;;;;27.57;14.50;;;;;;;;;;772326;180;920378;-66
2022/03/29 12:11:09;;;;;;;22.23;12.00;;;;;;;;;;772805;180;919033;-65
2022/03/29 12:13:35;;;;;;;26.43;14.70;;;;;;;;;;772486;180;920248;-64
2022/03/29 12:16:07;;;;;;;30.77;14.50;;;;;;;;;;777195;179;920691;-64
2022/03/29 12:21:06;;;;;;;25.70;14.57;;;;;;;;;;771703;180;915010;-65
2022/03/29 12:23:32;;;;;;;28.83;15.93;;;;;;;;;;768457;178;919566;-67
2022/03/29 12:25:57;;;;;;;22.75;13.88;;;;;;;;;;779531;179;923644;-66
2022/03/29 12:28:23;;;;;;;23.00;14.33;;;;;;;;;;773293;178;914578;-65
2022/03/29 12:30:49;;;;;;;23.57;14.67;;;;;;;;;;770809;178;919862;-65
2022/03/29 12:33:15;;;;;;;22.70;14.20;;;;;;;;;;777978;180;919318;-65
2022/03/29 12:35:41;;;;;;;21.13;14.23;;;;;;;;;;778137;178;919679;-66
2022/03/29 12:38:07;;;;;;;22.70;14.47;;;;;;;;;;778848;179;653886;-66
2022/03/29 12:40:32;;;;;;;22.77;14.00;;;;;;;;;;775813;179;920500;-66
2022/03/29 12:43:04;;;;;;;29.63;15.80;;;;;;;;;;769570;179;920403;-65
2022/03/29 12:45:30;;;;;;;20.57;14.30;;;;;;;;;;770179;178;932825;-66
2022/03/29 12:47:56;;;;;;;23.37;15.27;;;;;;;;;;770863;177;919299;-65
2022/03/29 12:50:22;;;;;;;25.70;16.83;;;;;;;;;;781646;176;919198;-64
2022/03/29 12:52:48;;;;;;;19.77;14.07;;;;;;;;;;773226;180;628100;-65
2022/03/29 12:55:13;;;;;;;23.63;15.67;;;;;;;;;;768390;178;919426;-64
2022/03/29 12:57:39;;;;;;;24.07;14.30;;;;;;;;;;775503;178;910042;-66
2022/03/29 13:00:09;;;;;;;24.00;15.00;;;;;;;;;;772311;179;915552;-64
2022/03/29 13:02:33;;;;;;;24.10;14.53;;;;;;;;;;769752;179;916170;-65
2022/03/29 13:04:59;;;;;;;22.43;14.03;;;;;;;;;;774612;179;811663;-65
2022/03/29 13:07:30;;;;;;;25.40;15.20;;;;;;;;;;782463;179;781758;-64
2022/03/29 13:09:56;;;;;;;23.20;14.57;;;;;;;;;;774222;179;914331;-64
2022/03/29 13:12:22;;;;;;;21.87;15.17;;;;;;;;;;770206;179;920517;-64
2022/03/29 13:14:48;;;;;;;22.80;16.53;;;;;;;;;;767197;172;914120;-65
2022/03/29 13:17:14;;;;;;;24.80;16.23;;;;;;;;;;736907;187;918383;-66
2022/03/29 13:19:46;;;;;;;25.07;16.30;;;;;;;;;;737301;187;919904;-65
2022/03/29 13:22:12;;;;;;;22.45;15.50;;;;;;;;;;745559;184;919292;-66
2022/03/29 13:24:38;;;;;;;24.97;15.13;;;;;;;;;;751404;186;624440;-63
2022/03/29 13:27:04;;;;;;;30.93;16.70;;;;;;;;;;739592;187;923524;-65
2022/03/29 13:29:31;;;;;;;22.90;15.73;;;;;;;;;;738821;185;928271;-65
2022/03/29 13:31:55;;;;;;;29.23;16.63;;;;;;;;;;747705;185;654442;-65
2022/03/29 13:34:21;;;;;;;26.53;16.63;;;;;;;;;;746231;185;644035;-65
2022/03/29 13:36:47;;;;;;;25.98;15.70;;;;;;;;;;747683;186;914566;-65
2022/03/29 13:39:14;;;;;;;23.57;16.67;;;;;;;;;;746240;184;627864;-64
2022/03/29 13:41:39;;;;;;;22.97;15.97;;;;;;;;;;749446;186;621063;-65
2022/03/29 13:44:05;;;;;;;27.73;15.97;;;;;;;;;;746251;184;616148;-65
2022/03/29 13:46:31;;;;;;;23.40;14.80;;;;;;;;;;744449;187;919561;-65
2022/03/29 13:48:57;;;;;;;31.07;17.03;;;;;;;;;;750880;186;616673;-65
2022/03/29 13:51:23;;;;;;;27.23;17.60;;;;;;;;;;719865;190;615023;-64
2022/03/29 13:53:48;;;;;;;24.23;17.37;;;;;;;;;;747971;182;917051;-64
2022/03/29 13:56:14;;;;;;;29.53;16.50;;;;;;;;;;748687;184;623177;-65
2022/03/29 13:58:40;;;;;;;26.77;16.80;;;;;;;;;;746884;184;630475;-66
2022/03/29 14:01:06;;;;;;;29.63;18.80;;;;;;;;;;749771;184;629393;-65
2022/03/29 14:03:32;;;;;;;26.30;17.00;;;;;;;;;;748610;185;625221;-66
2022/03/29 14:05:58;;;;;;;27.30;16.00;;;;;;;;;;745029;186;622278;-65
2022/03/29 14:08:27;;;;;;;21.20;15.40;;;;;;;;;;744934;184;639224;-66
2022/03/29 14:10:50;;;;;;;25.60;16.33;;;;;;;;;;746147;186;645829;-66